Time;durP1;ratioP1;P1;durP2;ratioP2;P2;SDS_P1;SDS_P2;PMS_P1;PMS_P2;Temp;Humidity;BMP_temperature;BMP_pressure;BME280_temperature;BME280_humidity;BME280_pressure;Samples;Min_cycle;Max_cycle;Signal;HPM_P1;HPM_P2
2023/09/09 00:01:49;;;;;;;19.52;15.85;;;;;;;22.69;100.00;101496.78;5198432;28;20507;-71
2023/09/09 00:04:20;;;;;;;19.35;15.30;;;;;;;22.76;100.00;101506.88;5194268;28;20453;-71
2023/09/09 00:06:51;;;;;;;17.88;15.80;;;;;;;22.58;100.00;101497.03;5196464;28;20118;-71
2023/09/09 00:09:22;;;;;;;25.75;16.05;;;;;;;22.52;100.00;101490.47;5194210;28;20110;-71
2023/09/09 00:11:54;;;;;;;18.67;16.65;;;;;;;22.77;100.00;101500.53;5204541;28;20034;-71
2023/09/09 00:14:27;;;;;;;20.17;18.17;;;;;;;22.53;100.00;101499.34;5198677;28;20030;-71
2023/09/09 00:16:59;;;;;;;19.05;17.13;;;;;;;22.51;100.00;101493.31;5181724;28;20030;-71
2023/09/09 00:19:33;;;;;;;23.27;17.88;;;;;;;22.50;100.00;101496.97;5190655;28;20026;-72
2023/09/09 00:22:05;;;;;;;22.35;18.77;;;;;;;22.47;100.00;101492.78;5193216;28;20066;-71
2023/09/09 00:24:36;;;;;;;21.25;18.80;;;;;;;22.56;100.00;101491.00;5190776;28;20069;-72
2023/09/09 00:27:07;;;;;;;22.85;19.48;;;;;;;22.68;100.00;101488.94;5188535;28;20033;-72
2023/09/09 00:29:39;;;;;;;22.05;19.83;;;;;;;22.68;100.00;101484.44;5184673;28;20034;-72
2023/09/09 00:32:10;;;;;;;26.00;20.83;;;;;;;22.19;100.00;101491.06;5188151;28;20074;-71
2023/09/09 00:34:41;;;;;;;22.90;20.65;;;;;;;22.26;100.00;101485.09;5188824;28;20108;-72
2023/09/09 00:37:13;;;;;;;21.70;19.55;;;;;;;22.66;100.00;101478.44;5182517;28;20051;-72
2023/09/09 00:39:44;;;;;;;24.30;21.80;;;;;;;22.16;100.00;101480.72;5197767;28;20029;-71
2023/09/09 00:42:16;;;;;;;21.88;19.58;;;;;;;22.38;100.00;101483.06;5203302;28;20062;-72
2023/09/09 00:44:47;;;;;;;25.05;22.45;;;;;;;22.28;100.00;101488.47;5180197;28;20038;-72
2023/09/09 00:47:18;;;;;;;24.73;21.98;;;;;;;22.44;100.00;101487.75;5188621;28;20026;-72
2023/09/09 00:49:50;;;;;;;26.58;22.75;;;;;;;22.53;100.00;101484.16;5184919;28;20038;-72
2023/09/09 00:52:21;;;;;;;27.35;24.67;;;;;;;22.38;100.00;101483.88;5187725;28;20386;-72
2023/09/09 00:54:53;;;;;;;26.13;23.60;;;;;;;22.45;100.00;101484.09;5189822;28;20396;-72
2023/09/09 00:57:26;;;;;;;28.17;25.38;;;;;;;22.14;100.00;101488.03;5196159;28;20124;-72
2023/09/09 00:59:57;;;;;;;26.53;24.03;;;;;;;22.31;100.00;101483.66;5193750;28;20490;-71
2023/09/09 01:02:28;;;;;;;26.05;23.65;;;;;;;22.26;100.00;101490.44;5200755;28;20062;-71
2023/09/09 01:05:00;;;;;;;26.63;24.05;;;;;;;22.07;100.00;101486.94;5193744;28;20050;-72
2023/09/09 01:07:44;;;;;;;28.15;24.95;;;;;;;22.33;100.00;101488.84;5212128;28;20116;-73
2023/09/09 01:10:18;;;;;;;28.00;25.30;;;;;;;21.97;100.00;101439.88;5196755;23;20055;-76
2023/09/09 01:12:53;;;;;;;29.00;25.90;;;;;;;21.97;100.00;101441.69;5148900;28;20119;-76
2023/09/09 01:15:24;;;;;;;29.73;26.90;;;;;;;21.98;100.00;101478.88;5153291;28;20027;-77
2023/09/09 01:17:56;;;;;;;28.30;25.40;;;;;;;22.24;100.00;101485.25;5152087;29;20098;-77
2023/09/09 01:20:31;;;;;;;29.83;26.73;;;;;;;21.80;100.00;101488.72;5151363;29;20027;-77
2023/09/09 01:23:03;;;;;;;28.88;26.00;;;;;;;21.75;100.00;101484.63;5152337;28;20035;-77
2023/09/09 01:25:35;;;;;;;31.70;26.52;;;;;;;21.67;100.00;101471.22;5153239;28;20054;-77
2023/09/09 01:28:06;;;;;;;27.77;24.98;;;;;;;21.51;100.00;101440.75;5151194;28;20034;-77
2023/09/09 01:30:37;;;;;;;28.67;25.67;;;;;;;21.81;100.00;101439.72;5152988;29;20126;-77
2023/09/09 01:33:09;;;;;;;29.37;26.70;;;;;;;21.98;100.00;101468.22;5150985;29;20142;-77
2023/09/09 01:35:40;;;;;;;30.70;27.83;;;;;;;21.97;100.00;101445.22;5138557;28;20019;-77
2023/09/09 01:38:15;;;;;;;30.90;28.00;;;;;;;21.46;100.00;101432.34;5151082;28;20531;-78
2023/09/09 01:40:46;;;;;;;31.77;28.67;;;;;;;21.92;100.00;101441.31;5149942;28;20028;-75
2023/09/09 01:43:18;;;;;;;29.98;26.95;;;;;;;21.70;100.00;101444.25;5146095;29;20043;-75
2023/09/09 01:45:49;;;;;;;30.88;27.67;;;;;;;21.52;100.00;101447.72;5150446;29;20031;-76
2023/09/09 01:48:20;;;;;;;32.25;29.17;;;;;;;21.45;100.00;101446.66;5149494;29;20031;-76
2023/09/09 01:50:52;;;;;;;32.90;29.98;;;;;;;21.72;100.00;101436.94;5151105;29;20062;-76
2023/09/09 01:53:23;;;;;;;35.70;32.42;;;;;;;21.38;100.00;101445.59;5152637;28;20031;-76
2023/09/09 01:56:01;;;;;;;35.65;32.15;;;;;;;21.47;100.00;101458.00;5151163;29;20489;-76
2023/09/09 01:58:32;;;;;;;35.30;32.03;;;;;;;21.52;100.00;101438.94;5152185;28;20079;-76
2023/09/09 02:01:03;;;;;;;35.80;31.27;;;;;;;21.59;100.00;101455.16;5151582;28;20038;-77
2023/09/09 02:03:35;;;;;;;33.28;30.05;;;;;;;21.59;100.00;101453.28;5151412;28;20027;-77
2023/09/09 02:06:06;;;;;;;33.63;30.67;;;;;;;21.73;100.00;101457.28;5149095;29;20471;-77
2023/09/09 02:08:38;;;;;;;34.35;30.90;;;;;;;21.33;100.00;101443.34;5151478;28;20073;-77
2023/09/09 02:11:09;;;;;;;33.20;29.90;;;;;;;21.43;100.00;101453.97;5137950;29;20086;-77
2023/09/09 02:13:40;;;;;;;34.13;30.92;;;;;;;21.50;100.00;101464.88;5150777;28;20019;-77
2023/09/09 02:16:12;;;;;;;34.35;31.25;;;;;;;21.35;100.00;101437.88;5149943;28;20031;-77
2023/09/09 02:18:43;;;;;;;34.70;31.65;;;;;;;21.56;100.00;101452.75;5144022;29;20019;-75
2023/09/09 02:21:17;;;;;;;33.67;30.47;;;;;;;21.42;100.00;101444.28;5151113;29;20054;-77
2023/09/09 02:23:49;;;;;;;;;;;;;;;22.14;100.00;101465.84;5151790;29;20033;-76
2023/09/09 02:26:20;;;;;;;34.77;31.37;;;;;;;21.27;100.00;101438.63;5151086;28;19918;-76
2023/09/09 02:28:53;;;;;;;36.78;33.05;;;;;;;20.89;100.00;101442.13;5150447;28;20031;-75
2023/09/09 02:31:24;;;;;;;37.97;34.07;;;;;;;21.40;100.00;101459.59;5150122;29;20027;-76
2023/09/09 02:33:56;;;;;;;38.97;35.17;;;;;;;21.27;100.00;101471.44;5149843;29;20027;-76
2023/09/09 02:36:27;;;;;;;38.97;35.47;;;;;;;21.37;100.00;101475.88;5149547;29;20046;-76
2023/09/09 02:39:01;;;;;;;41.37;37.53;;;;;;;21.10;100.00;101438.44;5154691;28;20121;-76
2023/09/09 02:41:32;;;;;;;41.20;37.10;;;;;;;21.11;100.00;101433.94;5158443;28;20031;-76
2023/09/09 02:44:04;;;;;;;41.83;37.97;;;;;;;20.77;100.00;101422.03;5150971;29;20023;-76
2023/09/09 02:46:35;;;;;;;41.47;37.77;;;;;;;21.10;100.00;101442.94;5151846;29;20356;-76
2023/09/09 02:49:07;;;;;;;47.33;42.73;;;;;;;21.12;100.00;101473.75;5136405;29;20066;-76
2023/09/09 02:51:38;;;;;;;47.97;43.67;;;;;;;20.55;100.00;101413.38;5151931;29;20027;-76
2023/09/09 02:54:10;;;;;;;47.93;43.33;;;;;;;21.06;100.00;101426.41;5149883;29;20015;-76
2023/09/09 02:56:41;;;;;;;49.03;44.23;;;;;;;21.06;100.00;101422.91;5149755;29;20031;-76
2023/09/09 02:59:13;;;;;;;52.07;46.80;;;;;;;20.99;100.00;101467.91;5148231;28;20034;-77
2023/09/09 03:01:44;;;;;;;52.20;46.97;;;;;;;20.88;100.00;101436.94;5141961;29;20031;-76
2023/09/09 03:04:17;;;;;;;53.67;48.67;;;;;;;21.15;100.00;101452.13;5149931;29;20019;-76
2023/09/09 03:06:49;;;;;;;53.72;48.42;;;;;;;20.88;100.00;101466.22;5151919;28;20059;-77
2023/09/09 03:09:23;;;;;;;55.90;50.37;;;;;;;20.63;100.00;101423.31;5150930;29;20118;-77
2023/09/09 03:11:55;;;;;;;55.30;49.87;;;;;;;21.23;100.00;101479.88;5145534;29;20039;-77
2023/09/09 03:14:26;;;;;;;54.13;48.93;;;;;;;21.12;100.00;101459.59;5150537;29;20057;-77
2023/09/09 03:17:01;;;;;;;55.03;49.50;;;;;;;21.03;100.00;101432.03;5150510;29;20039;-77
2023/09/09 03:19:34;;;;;;;54.93;49.30;;;;;;;20.76;100.00;101426.50;5149001;28;20037;-77
2023/09/09 03:22:05;;;;;;;57.00;51.57;;;;;;;20.96;100.00;101453.09;5153584;29;20566;-77
2023/09/09 03:24:37;;;;;;;54.73;49.47;;;;;;;21.04;100.00;101457.66;5154872;28;20074;-77
2023/09/09 03:27:08;;;;;;;58.23;52.47;;;;;;;21.07;100.00;101467.19;5154879;29;20027;-78
2023/09/09 03:29:39;;;;;;;61.33;55.30;;;;;;;20.70;100.00;101435.03;5154662;29;20470;-77
2023/09/09 03:32:12;;;;;;;64.57;57.97;;;;;;;20.51;100.00;101422.66;5153647;28;20027;-77
2023/09/09 03:34:44;;;;;;;66.77;60.17;;;;;;;20.65;100.00;101471.91;5154518;29;20023;-78
2023/09/09 03:37:17;;;;;;;64.27;58.00;;;;;;;20.73;100.00;101433.94;5152568;29;20027;-78
2023/09/09 03:39:52;;;;;;;67.93;61.42;;;;;;;20.84;100.00;101465.69;5153377;29;20058;-77
2023/09/09 03:42:23;;;;;;;;;;;;;;;21.55;100.00;101467.09;5154573;29;20027;-78
2023/09/09 03:44:54;;;;;;;65.40;58.93;;;;;;;20.84;100.00;101447.03;5153821;29;19919;-78
2023/09/09 03:47:26;;;;;;;65.30;59.03;;;;;;;20.47;100.00;101458.50;5152613;29;20380;-78
2023/09/09 03:49:57;;;;;;;67.07;60.47;;;;;;;20.45;100.00;101424.06;5153070;29;20669;-77
2023/09/09 03:52:29;;;;;;;65.47;59.07;;;;;;;20.77;100.00;101454.78;5154291;29;20035;-78
2023/09/09 03:55:01;;;;;;;66.87;59.93;;;;;;;20.52;100.00;101462.41;5153006;29;20039;-77
2023/09/09 03:57:32;;;;;;;67.97;61.30;;;;;;;20.70;100.00;101442.22;5154486;28;20041;-77
2023/09/09 04:00:05;;;;;;;65.57;59.07;;;;;;;20.73;100.00;101482.69;5153044;28;20039;-77
2023/09/09 04:02:37;;;;;;;66.50;60.03;;;;;;;20.75;100.00;101483.34;5148968;28;20028;-76
2023/09/09 04:05:08;;;;;;;68.90;62.17;;;;;;;20.79;100.00;101487.41;5151680;29;20037;-77
2023/09/09 04:07:43;;;;;;;65.50;59.10;;;;;;;20.40;100.00;101447.59;5154288;28;20158;-77
2023/09/09 04:10:16;;;;;;;62.47;56.33;;;;;;;20.78;100.00;101472.44;5153699;28;20063;-77
2023/09/09 04:12:50;;;;;;;63.10;56.97;;;;;;;20.53;100.00;101458.78;5153900;28;20070;-77
2023/09/09 04:15:21;;;;;;;61.03;54.88;;;;;;;20.43;100.00;101480.06;5153570;28;20035;-77
2023/09/09 04:17:53;;;;;;;65.70;59.23;;;;;;;20.21;100.00;101459.09;5153778;28;20058;-77
2023/09/09 04:20:24;;;;;;;64.87;58.57;;;;;;;20.44;100.00;101478.22;5151632;29;20039;-77
2023/09/09 04:22:56;;;;;;;62.90;56.90;;;;;;;20.21;100.00;101430.69;5153402;29;20387;-77
2023/09/09 04:25:27;;;;;;;64.47;58.00;;;;;;;20.28;100.00;101466.34;5154220;29;20106;-77
2023/09/09 04:27:59;;;;;;;63.37;56.83;;;;;;;20.51;100.00;101482.00;5153530;29;20636;-77
2023/09/09 04:30:30;;;;;;;65.03;58.83;;;;;;;20.23;100.00;101473.91;5153643;29;20643;-77
2023/09/09 04:33:02;;;;;;;69.23;62.40;;;;;;;19.82;100.00;101437.66;5145236;28;20039;-78
2023/09/09 04:35:34;;;;;;;66.43;59.83;;;;;;;20.02;100.00;101461.56;5155721;29;20038;-77
2023/09/09 04:38:10;;;;;;;65.93;59.47;;;;;;;20.21;100.00;101453.78;5159237;28;20027;-77
2023/09/09 04:40:42;;;;;;;65.50;58.87;;;;;;;19.95;100.00;101465.75;5159160;28;20166;-77
2023/09/09 04:43:17;;;;;;;62.47;56.27;;;;;;;19.97;100.00;101481.59;5181576;28;20047;-77
2023/09/09 04:45:49;;;;;;;62.80;56.47;;;;;;;20.07;100.00;101491.25;5198325;28;20055;-77
2023/09/09 04:48:20;;;;;;;64.67;58.27;;;;;;;20.29;100.00;101493.78;5177695;28;20445;-77
2023/09/09 04:50:52;;;;;;;63.47;57.27;;;;;;;20.04;100.00;101459.66;5177822;28;20031;-77
2023/09/09 04:53:24;;;;;;;61.83;55.90;;;;;;;20.37;100.00;101501.91;5167551;28;20367;-77
2023/09/09 04:56:00;;;;;;;60.23;54.33;;;;;;;19.78;100.00;101435.41;5154700;28;20023;-78
2023/09/09 04:58:33;;;;;;;63.67;57.37;;;;;;;20.01;100.00;101464.38;5154280;28;20019;-77
2023/09/09 05:01:04;;;;;;;64.70;58.33;;;;;;;19.96;100.00;101467.47;5152253;29;20533;-77
2023/09/09 05:03:35;;;;;;;66.80;60.20;;;;;;;20.07;100.00;101474.50;5152422;28;20031;-77
2023/09/09 05:06:07;;;;;;;70.90;63.67;;;;;;;19.61;100.00;101443.06;5152904;28;20035;-77
2023/09/09 05:08:38;;;;;;;68.63;61.97;;;;;;;20.21;100.00;101501.66;5153505;28;20015;-76
2023/09/09 05:11:10;;;;;;;71.00;63.57;;;;;;;19.94;100.00;101474.72;5152672;28;20051;-76
2023/09/09 05:13:41;;;;;;;74.83;67.37;;;;;;;19.90;100.00;101489.25;5143850;28;20038;-76
2023/09/09 05:16:12;;;;;;;75.80;68.10;;;;;;;19.73;100.00;101494.28;5149197;29;20054;-76
2023/09/09 05:18:44;;;;;;;81.93;73.67;;;;;;;20.01;100.00;101494.47;5152167;28;20033;-76
2023/09/09 05:21:16;;;;;;;81.00;72.97;;;;;;;19.87;100.00;101485.06;5152167;29;20341;-76
2023/09/09 05:23:47;;;;;;;81.53;73.53;;;;;;;19.99;100.00;101482.28;5151901;28;20529;-76
2023/09/09 05:26:19;;;;;;;86.17;77.33;;;;;;;20.03;100.00;101505.81;5151842;28;20510;-76
2023/09/09 05:28:50;;;;;;;83.33;75.17;;;;;;;19.78;100.00;101478.75;5148274;29;20037;-76
2023/09/09 05:31:21;;;;;;;86.27;77.23;;;;;;;20.03;100.00;101483.69;5152502;29;20118;-76
2023/09/09 05:33:53;;;;;;;86.20;77.17;;;;;;;20.18;100.00;101502.75;5150999;29;20699;-76
2023/09/09 05:36:24;;;;;;;97.07;87.17;;;;;;;20.21;100.00;101513.13;5152155;29;20356;-76
2023/09/09 05:38:59;;;;;;;95.57;85.87;;;;;;;20.09;100.00;101499.09;5150886;29;20086;-76
2023/09/09 05:41:31;;;;;;;100.37;88.23;;;;;;;20.15;100.00;101508.34;5152211;28;20042;-76
2023/09/09 05:44:02;;;;;;;133.20;87.53;;;;;;;19.97;100.00;101500.19;5149297;28;20023;-76
2023/09/09 05:46:34;;;;;;;141.63;87.50;;;;;;;19.65;100.00;101464.91;5152295;29;20034;-76
2023/09/09 05:49:05;;;;;;;149.47;88.23;;;;;;;19.82;100.00;101506.75;5165841;28;20109;-77
2023/09/09 05:51:37;;;;;;;134.10;88.63;;;;;;;19.75;100.00;101472.88;5152166;29;20027;-76
2023/09/09 05:54:08;;;;;;;135.90;87.83;;;;;;;19.67;100.00;101489.53;5166690;28;20042;-76
2023/09/09 05:56:39;;;;;;;103.63;88.30;;;;;;;19.87;100.00;101510.81;5151262;29;20068;-76
2023/09/09 05:59:11;;;;;;;220.53;85.83;;;;;;;19.74;100.00;101501.25;5148080;29;20038;-76
2023/09/09 06:01:42;;;;;;;119.93;88.40;;;;;;;19.76;100.00;101504.63;5149922;28;20057;-76
2023/09/09 06:04:18;;;;;;;100.73;90.23;;;;;;;19.66;100.00;101472.72;5149495;29;20031;-76
2023/09/09 06:06:49;;;;;;;189.90;89.77;;;;;;;19.67;100.00;101494.84;5145921;29;20042;-76
2023/09/09 06:09:22;;;;;;;158.60;90.83;;;;;;;19.72;100.00;101500.59;5150436;29;20031;-76
2023/09/09 06:11:53;;;;;;;132.87;88.93;;;;;;;19.96;100.00;101528.59;5151895;28;20063;-77
2023/09/09 06:14:25;;;;;;;110.23;90.77;;;;;;;19.74;100.00;101495.94;5149935;29;20543;-77
2023/09/09 06:16:56;;;;;;;125.23;89.53;;;;;;;19.90;100.00;101521.16;5150108;29;20042;-77
2023/09/09 06:19:28;;;;;;;105.50;88.00;;;;;;;19.87;100.00;101522.28;5150498;29;20149;-77
2023/09/09 06:21:59;;;;;;;95.23;80.33;;;;;;;19.78;100.00;101497.38;5151846;29;20217;-77
2023/09/09 06:24:30;;;;;;;86.83;78.17;;;;;;;19.73;100.00;101494.28;5151235;29;20031;-77
2023/09/09 06:27:02;;;;;;;91.13;81.30;;;;;;;19.93;100.00;101535.00;5151571;29;20027;-78
2023/09/09 06:29:33;;;;;;;89.77;80.20;;;;;;;19.94;100.00;101534.06;5151964;29;20035;-77
2023/09/09 06:32:06;;;;;;;93.67;83.97;;;;;;;20.00;100.00;101539.78;5144681;29;20583;-77
2023/09/09 06:34:38;;;;;;;100.13;83.77;;;;;;;19.79;100.00;101530.94;5142507;28;20034;-78
2023/09/09 06:37:10;;;;;;;89.90;80.17;;;;;;;19.78;100.00;101523.94;5149514;29;20045;-78
2023/09/09 06:39:41;;;;;;;101.47;81.90;;;;;;;19.82;100.00;101528.03;5151198;28;20019;-78
2023/09/09 06:42:14;;;;;;;94.60;84.17;;;;;;;19.95;100.00;101542.84;5147844;28;20034;-78
2023/09/09 06:44:46;;;;;;;94.93;84.83;;;;;;;19.95;100.00;101537.53;5133744;29;20024;-77
2023/09/09 06:47:17;;;;;;;91.27;82.60;;;;;;;20.15;100.00;101550.91;5142904;28;20031;-77
2023/09/09 06:49:50;;;;;;;91.73;82.67;;;;;;;20.16;100.00;101552.59;5132108;29;20467;-77
2023/09/09 06:52:22;;;;;;;90.77;82.23;;;;;;;20.14;100.00;101541.25;5148818;28;20034;-77
2023/09/09 06:54:53;;;;;;;90.27;81.37;;;;;;;19.95;100.00;101534.88;5143676;29;20041;-77
2023/09/09 06:57:24;;;;;;;87.07;78.77;;;;;;;20.31;100.00;101556.53;5144100;29;20097;-78
2023/09/09 06:59:56;;;;;;;84.63;76.83;;;;;;;20.24;100.00;101542.09;5151622;28;20027;-78
2023/09/09 07:02:27;;;;;;;89.33;80.70;;;;;;;20.37;100.00;101556.94;5151099;29;20037;-77
2023/09/09 07:04:58;;;;;;;86.90;78.83;;;;;;;20.38;100.00;101556.81;5150207;28;20031;-78
2023/09/09 07:07:30;;;;;;;88.90;80.33;;;;;;;20.31;100.00;101545.03;5151070;28;20027;-77
2023/09/09 07:10:01;;;;;;;88.63;80.23;;;;;;;20.46;100.00;101533.97;5149617;29;20602;-80
2023/09/09 07:12:32;;;;;;;86.67;78.47;;;;;;;20.61;100.00;101566.31;5133484;29;20046;-79
2023/09/09 07:15:05;;;;;;;88.40;79.73;;;;;;;20.58;100.00;101548.78;5150353;28;20114;-79
2023/09/09 07:17:37;;;;;;;92.43;83.53;;;;;;;20.38;100.00;101535.53;5150892;28;20031;-79
2023/09/09 07:20:08;;;;;;;95.57;86.33;;;;;;;20.65;100.00;101546.41;5148913;29;20046;-79
2023/09/09 07:22:40;;;;;;;99.40;89.60;;;;;;;20.74;100.00;101547.38;5150877;28;20076;-80
2023/09/09 07:25:11;;;;;;;98.23;88.63;;;;;;;20.88;100.00;101564.72;5151194;28;20806;-80
2023/09/09 07:27:45;;;;;;;97.80;88.27;;;;;;;20.90;100.00;101554.78;5150766;29;20031;-80
2023/09/09 07:30:18;;;;;;;100.57;90.43;;;;;;;20.91;100.00;101565.28;5151362;29;20085;-80
2023/09/09 07:32:52;;;;;;;99.75;90.20;;;;;;;21.36;100.00;101588.75;5149202;29;20059;-80
2023/09/09 07:35:24;;;;;;;103.07;93.25;;;;;;;21.19;100.00;101548.56;5164436;28;20078;-80
2023/09/09 07:37:55;;;;;;;95.68;86.40;;;;;;;21.42;100.00;101564.19;5153233;28;20019;-84
2023/09/09 07:40:27;;;;;;;99.07;89.20;;;;;;;21.53;100.00;101587.16;5151500;28;20046;-82
2023/09/09 07:42:59;;;;;;;102.00;91.85;;;;;;;21.28;100.00;101537.03;5151935;28;20038;-83
2023/09/09 07:45:30;;;;;;;103.20;92.93;;;;;;;21.38;100.00;101546.84;5151498;29;20027;-82
2023/09/09 07:48:02;;;;;;;103.32;93.50;;;;;;;21.41;100.00;101551.88;5149968;29;20027;-81
2023/09/09 07:50:33;;;;;;;105.50;95.43;;;;;;;21.36;100.00;101543.47;5147047;28;20038;-81
2023/09/09 07:53:05;;;;;;;102.78;92.82;;;;;;;21.64;100.00;101546.16;5149989;29;20030;-81
2023/09/09 07:55:36;;;;;;;103.47;93.45;;;;;;;21.92;100.00;101548.84;5151624;28;20028;-81
2023/09/09 07:58:07;;;;;;;102.68;92.57;;;;;;;22.11;100.00;101555.00;5151679;29;20086;-80
2023/09/09 08:00:44;;;;;;;95.28;86.15;;;;;;;22.48;100.00;101559.34;5151868;28;20031;-79
2023/09/09 08:03:17;;;;;;;94.63;85.70;;;;;;;22.26;100.00;101565.97;5148875;29;20694;-81
2023/09/09 08:06:06;;;;;;;;;;;;;;;;;;;;;
2023/09/09 08:08:37;;;;;;;92.40;83.63;;;;;;;22.62;100.00;101577.69;5154186;29;20031;-81
2023/09/09 08:11:09;;;;;;;93.30;84.50;;;;;;;22.80;100.00;101593.66;5153119;29;20043;-80
2023/09/09 08:13:44;;;;;;;84.55;76.63;;;;;;;22.82;100.00;101584.50;5154943;28;20386;-81
2023/09/09 08:16:15;;;;;;;90.40;81.63;;;;;;;23.00;100.00;101578.28;5152903;29;20167;-80
2023/09/09 08:18:47;;;;;;;89.40;80.85;;;;;;;23.24;100.00;101599.97;5154273;28;20330;-80
2023/09/09 08:21:18;;;;;;;83.22;75.53;;;;;;;23.19;100.00;101555.88;5154970;28;20073;-80
2023/09/09 08:23:50;;;;;;;74.00;66.82;;;;;;;23.44;100.00;101590.75;5149076;29;20035;-77
2023/09/09 08:26:21;;;;;;;75.53;68.40;;;;;;;23.60;100.00;101582.97;5150717;28;20077;-78
2023/09/09 08:28:52;;;;;;;73.32;66.10;;;;;;;23.54;100.00;101573.75;5151967;29;20030;-78
2023/09/09 08:31:24;;;;;;;72.13;65.15;;;;;;;23.82;100.00;101589.56;5151880;29;20050;-77
2023/09/09 08:33:55;;;;;;;71.28;64.72;;;;;;;23.81;100.00;101585.19;5152247;29;20155;-78
2023/09/09 08:36:27;;;;;;;70.63;63.83;;;;;;;24.16;100.00;101615.41;5152461;28;20081;-77
2023/09/09 08:38:59;;;;;;;66.00;59.80;;;;;;;24.31;100.00;101606.78;5150478;29;20027;-77
2023/09/09 08:42:01;;;;;;;62.08;56.20;;;;;;;24.33;100.00;101582.50;5142115;28;20292;-77
2023/09/09 08:44:48;;;;;;;51.95;47.17;;;;;;;24.65;100.00;101619.16;5162452;28;20090;-77
2023/09/09 08:47:21;;;;;;;50.70;46.00;;;;;;;24.49;100.00;101576.34;5145547;29;20474;-77
2023/09/09 08:49:54;;;;;;;46.58;42.35;;;;;;;24.53;100.00;101585.69;5153191;28;20026;-77
2023/09/09 08:52:27;;;;;;;43.05;38.95;;;;;;;24.85;100.00;101591.19;5174839;28;20039;-78
2023/09/09 08:54:59;;;;;;;44.75;40.45;;;;;;;24.78;100.00;101596.41;5193720;28;20023;-77
2023/09/09 08:57:32;;;;;;;34.78;31.45;;;;;;;25.21;100.00;101619.47;5169065;28;20046;-77
2023/09/09 09:00:04;;;;;;;28.10;25.50;;;;;;;25.15;100.00;101596.03;5174732;28;20032;-77
2023/09/09 09:02:36;;;;;;;34.20;31.02;;;;;;;25.28;100.00;101590.97;5181392;28;20041;-79
2023/09/09 09:05:10;;;;;;;28.30;25.65;;;;;;;25.56;100.00;101625.41;5152811;28;20031;-78
2023/09/09 09:07:41;;;;;;;29.35;26.33;;;;;;;25.54;100.00;101627.41;5151218;28;20066;-78
2023/09/09 09:10:12;;;;;;;26.27;23.48;;;;;;;25.69;100.00;101634.78;5146357;29;20047;-78
2023/09/09 09:12:44;;;;;;;24.92;22.55;;;;;;;25.59;100.00;101614.31;5152785;28;20023;-78
2023/09/09 09:15:16;;;;;;;25.17;22.92;;;;;;;25.78;100.00;101639.09;5153015;29;20038;-78
2023/09/09 09:17:47;;;;;;;22.95;20.70;;;;;;;25.64;100.00;101616.50;5145358;28;20027;-78
2023/09/09 09:20:30;;;;;;;20.98;18.80;;;;;;;26.06;100.00;101611.78;5151262;29;20113;-77
2023/09/09 09:23:05;;;;;;;19.48;17.73;;;;;;;25.88;100.00;101612.06;5150167;29;20031;-78
2023/09/09 09:25:41;;;;;;;17.88;15.98;;;;;;;26.28;100.00;101638.84;5152503;28;20051;-78
2023/09/09 09:28:14;;;;;;;19.17;17.20;;;;;;;26.16;100.00;101627.66;5152943;28;20035;-78
2023/09/09 09:30:47;;;;;;;13.30;11.43;;;;;;;26.33;100.00;101614.13;5166651;28;20038;-78
2023/09/09 09:33:24;;;;;;;18.48;16.67;;;;;;;26.51;100.00;101623.75;5140572;29;20038;-77
2023/09/09 09:35:59;;;;;;;14.73;12.98;;;;;;;26.65;100.00;101617.59;5147326;29;20031;-78
2023/09/09 09:38:30;;;;;;;13.63;12.32;;;;;;;26.47;100.00;101596.44;5146506;29;20098;-79
2023/09/09 09:41:03;;;;;;;12.05;10.18;;;;;;;26.58;100.00;101624.72;5151632;29;20031;-77
2023/09/09 09:43:35;;;;;;;9.52;8.10;;;;;;;26.79;99.37;101628.56;5147858;28;20082;-78
2023/09/09 09:46:20;;;;;;;16.17;9.73;;;;;;;26.68;100.00;101601.13;5148169;29;20494;-78
2023/09/09 09:48:53;;;;;;;13.05;9.73;;;;;;;26.62;93.46;101601.03;5150405;28;20069;-78
2023/09/09 09:51:24;;;;;;;16.65;11.63;;;;;;;26.62;92.73;101587.59;5148716;29;20149;-78
2023/09/09 09:53:55;;;;;;;15.52;10.15;;;;;;;26.93;90.02;101618.88;5150201;28;20123;-78
2023/09/09 09:56:27;;;;;;;11.90;8.02;;;;;;;27.00;82.81;101619.78;5149902;28;20055;-78
2023/09/09 09:58:58;;;;;;;9.10;6.90;;;;;;;26.94;91.05;101594.50;5150262;29;21163;-78
2023/09/09 10:01:30;;;;;;;10.43;6.40;;;;;;;27.23;78.83;101593.91;5150506;28;20077;-78
2023/09/09 10:04:05;;;;;;;11.13;8.48;;;;;;;27.16;78.19;101596.50;5148918;28;20039;-78
2023/09/09 10:06:41;;;;;;;8.65;6.97;;;;;;;27.11;74.43;101583.59;5150445;28;20023;-78
2023/09/09 10:09:52;;;;;;;12.40;10.35;;;;;;;27.70;86.18;101628.66;5150567;28;20129;-78
2023/09/09 10:12:47;;;;;;;13.20;11.85;;;;;;;27.76;85.66;101622.53;5139103;29;20511;-78
2023/09/09 10:15:21;;;;;;;15.93;13.30;;;;;;;27.63;89.55;101590.91;5135678;29;20031;-78
2023/09/09 10:17:54;;;;;;;15.48;13.98;;;;;;;27.73;82.37;101598.69;5139529;28;20114;-79
2023/09/09 10:20:27;;;;;;;12.73;11.43;;;;;;;27.75;72.73;101594.78;5149410;28;20035;-79
2023/09/09 10:23:00;;;;;;;9.82;8.82;;;;;;;27.97;67.56;101623.59;5150564;28;20034;-79
2023/09/09 10:25:32;;;;;;;10.65;7.72;;;;;;;28.12;66.35;101605.53;5148955;29;20034;-78
2023/09/09 10:28:10;;;;;;;8.10;7.30;;;;;;;28.41;68.72;101597.56;5149972;28;20031;-77
2023/09/09 10:30:42;;;;;;;8.30;6.82;;;;;;;29.07;64.79;101573.16;5138749;29;20023;-78
2023/09/09 10:33:16;;;;;;;10.07;9.07;;;;;;;29.32;65.83;101581.59;5147958;28;20027;-78
2023/09/09 10:35:50;;;;;;;7.18;6.35;;;;;;;30.12;60.25;101594.72;5148475;29;20082;-79
2023/09/09 10:38:22;;;;;;;7.90;5.40;;;;;;;30.39;51.26;101586.69;5165017;28;20055;-79
2023/09/09 10:40:54;;;;;;;7.50;6.22;;;;;;;30.58;51.81;101598.50;5148768;28;20027;-79
2023/09/09 10:43:25;;;;;;;7.53;6.82;;;;;;;30.31;53.07;101593.13;5149261;28;20378;-79
2023/09/09 10:45:57;;;;;;;7.43;6.63;;;;;;;30.99;52.23;101598.50;5139236;28;20027;-79
2023/09/09 10:48:29;;;;;;;8.38;7.50;;;;;;;30.63;50.75;101624.94;5148589;29;20435;-80
2023/09/09 10:51:05;;;;;;;7.30;6.60;;;;;;;31.05;53.09;101594.13;5147407;28;20478;-80
2023/09/09 10:53:36;;;;;;;12.00;7.50;;;;;;;31.08;52.44;101591.84;5149283;28;20035;-80
2023/09/09 10:56:17;;;;;;;5.68;5.13;;;;;;;31.18;56.22;101620.28;5148458;29;20024;-80
2023/09/09 10:58:51;;;;;;;5.03;3.80;;;;;;;30.61;44.83;101571.09;5146658;29;20213;-79
2023/09/09 11:01:28;;;;;;;4.20;3.65;;;;;;;30.86;48.76;101594.78;5148482;28;20030;-79
2023/09/09 11:04:11;;;;;;;6.15;5.50;;;;;;;30.42;47.98;101589.78;5146016;28;20058;-79
2023/09/09 11:07:32;;;;;;;6.53;3.97;;;;;;;30.91;50.45;101575.25;5147119;28;20035;-79
2023/09/09 11:10:44;;;;;;;;;;;;;;;;;;;;;
2023/09/09 11:16:53;;;;;;;8.00;5.50;;;;;;;30.70;48.91;101573.56;5129590;29;20102;-79
2023/09/09 11:19:29;;;;;;;5.47;4.22;;;;;;;30.73;47.14;101579.41;5129354;29;20023;-80
2023/09/09 11:22:04;;;;;;;4.50;4.10;;;;;;;30.79;44.05;101575.84;5129033;29;20032;-80
2023/09/09 11:24:35;;;;;;;6.78;5.00;;;;;;;30.96;44.28;101602.47;5129118;29;20440;-80
2023/09/09 11:27:09;;;;;;;6.38;3.70;;;;;;;30.95;43.32;101594.56;5115614;29;20046;-80
2023/09/09 11:29:49;;;;;;;4.25;3.72;;;;;;;30.81;44.75;101591.84;5125570;29;20039;-80
2023/09/09 11:32:25;;;;;;;5.35;3.58;;;;;;;30.72;41.77;101617.44;5122582;29;20030;-80
2023/09/09 11:34:57;;;;;;;4.35;3.10;;;;;;;30.25;42.19;101583.16;5127439;29;20066;-80
2023/09/09 11:37:28;;;;;;;5.63;3.78;;;;;;;30.52;41.29;101599.38;5128231;29;20039;-79